Aeroporto :
LOGIN :

Iscrizione | Disclaimer

   EN    FR    IT 

 










Sommario :    VFR   VFR Marginale   IFR   IFR Intensivo   IFR Molto Intensivo
Visibilità : 
Base nubi : 
>= 8 km
>= 3000ft
5 / 8 km
1000 / 3000 ft
1500m / 5 km
500 / 1000 ft
800 / 1500m
200 / 500 ft
< 800m
< 200 ft
Simboli :   Temporali  Nebbia  Neve Forte  Precipitazioni Forti  Vento > 20 kt
SIGMETs :   Varie  Temporali  Ghiacco  Turbolenza  Onda orograficha  Ceneri Vulcaniche






- Altitudine del aeroporto : 1090 ft
- Codice IATA : CFE


LFLC - Clermont-Ferrand Auvergne

ULTIMO METAR :
  • 170800Z AUTO VRB02KT 9999 FEW011 BKN016 OVC022 03/03 Q1008 TEMPO BKN014

METARs OBSOLETI :
  • 170730Z AUTO 01002KT 9999 FEW013 OVC021 03/03 Q1008 TEMPO BKN014
  • 170700Z AUTO 05002KT 9999 4900 OVC021 02/02 Q1007 TEMPO BKN014
  • 170630Z AUTO 18003KT 9999 FEW007 OVC021 02/02 Q1007 TEMPO BKN014
  • 170600Z AUTO 00000KT 9000 1800 FEW008 BKN023 BKN052 02/01 Q1007 TEMPO BKN014
  • 170530Z AUTO 23002KT 9999 2300 FEW024 SCT052 BKN140 02/02 Q1007 TEMPO BKN014

TAF TAF LFLC
Valido dal 17 a 03 ore il 18 a 03 ore UTC


170200Z 1703/1803 VRB02KT 9999 BKN030
PROB40
TEMPO 1703/1710 -RA BKN014
BECMG 1710/1712 05005KT BKN020
BECMG 1719/1721 VRB02KT BKN012
PROB40
TEMPO 1722/1803 -RA BKN003 OVC006
ATIS : +33 4 73 62 74 38



MetMap, La meteo Aeronautica in un colpo d'occhio ! - Copyright ORBIFLY Dicembre 2007 - Disclaimer

ORBIFLY MET'MAP TEAM :

Programmazione e sviluppo : Alexandra Zaïnal
Concezione e sviluppo : Baudouin d'Aumeries
Co-Programmazione e sviluppo : Marc-Olivier Méhu
Supporto tecnico e logistico : Manuel Goepfert
Aiuto per la traduzione : Arnaldo La Scala

Contatto : metmap@orbifly.com




FONTI E CREDITI :

   NOAA